createdAt,value
2023-03-26T00:01:16.248Z,1.55
2023-03-26T00:03:44.801Z,2.50
2023-03-26T00:06:13.804Z,1.55
2023-03-26T00:08:42.241Z,2.00
2023-03-26T00:11:10.977Z,3.00
2023-03-26T00:13:38.245Z,2.58
2023-03-26T00:16:05.800Z,2.70
2023-03-26T00:18:34.858Z,3.08
2023-03-26T00:21:04.179Z,2.20
2023-03-26T00:23:32.606Z,2.45
2023-03-26T00:26:01.038Z,2.60
2023-03-26T00:28:27.621Z,2.47
2023-03-26T00:30:59.575Z,2.45
2023-03-26T00:33:26.667Z,2.50
2023-03-26T00:35:55.239Z,1.80
2023-03-26T00:38:24.095Z,2.58
2023-03-26T00:40:52.099Z,2.15
2023-03-26T00:43:20.205Z,1.80
2023-03-26T00:45:48.809Z,1.90
2023-03-26T00:48:16.717Z,1.77
2023-03-26T00:50:46.283Z,1.42
2023-03-26T00:53:14.340Z,1.30
2023-03-26T00:55:45.564Z,1.70
2023-03-26T00:58:13.553Z,1.90
2023-03-26T01:00:57.968Z,1.73
2023-03-26T01:03:29.283Z,1.77
2023-03-26T01:06:04.633Z,1.63
2023-03-26T01:08:45.096Z,1.95
2023-03-26T01:11:16.098Z,1.75
2023-03-26T01:13:52.495Z,1.77
2023-03-26T01:16:27.392Z,2.53
2023-03-26T01:18:55.159Z,1.48
2023-03-26T01:21:28.783Z,1.13
2023-03-26T01:23:57.884Z,0.88
2023-03-26T01:26:40.584Z,1.27
2023-03-26T01:29:18.634Z,1.10
2023-03-26T01:32:00.774Z,1.00
2023-03-26T01:34:42.429Z,0.95
2023-03-26T01:37:30.452Z,0.88
2023-03-26T01:40:06.020Z,1.17
2023-03-26T01:43:14.677Z,1.35
2023-03-26T01:45:44.828Z,1.42
2023-03-26T01:48:12.516Z,0.60
2023-03-26T01:50:39.093Z,0.88
2023-03-26T01:53:06.117Z,0.80
2023-03-26T01:55:54.134Z,0.82
2023-03-26T01:58:37.990Z,1.10
2023-03-26T02:01:31.274Z,0.80
2023-03-26T02:04:10.676Z,0.98
2023-03-26T02:06:51.913Z,0.93
2023-03-26T02:09:24.930Z,0.95
2023-03-26T02:11:51.989Z,1.35
2023-03-26T02:14:19.013Z,1.20
2023-03-26T02:16:46.830Z,0.80
2023-03-26T02:19:21.927Z,1.65
2023-03-26T02:21:51.509Z,1.15
2023-03-26T02:24:19.435Z,0.65
2023-03-26T02:26:46.692Z,1.05
2023-03-26T02:29:19.257Z,1.45
2023-03-26T02:31:48.369Z,0.90
2023-03-26T02:34:16.643Z,1.30
2023-03-26T02:36:43.390Z,0.85
2023-03-26T02:39:10.938Z,1.05
2023-03-26T02:41:40.558Z,0.88
2023-03-26T02:44:07.502Z,0.90
2023-03-26T02:46:34.284Z,0.45
2023-03-26T02:49:01.052Z,1.00
2023-03-26T02:51:28.819Z,0.68
2023-03-26T02:53:55.610Z,1.10
2023-03-26T02:56:22.249Z,0.65
2023-03-26T02:58:49.186Z,0.70
2023-03-26T03:01:18.321Z,0.80
2023-03-26T03:03:47.572Z,0.47
2023-03-26T03:06:18.766Z,0.60
2023-03-26T03:08:49.043Z,0.95
2023-03-26T03:11:18.633Z,0.75
2023-03-26T03:13:45.974Z,1.17
2023-03-26T03:16:14.736Z,0.57
2023-03-26T03:18:41.353Z,1.15
2023-03-26T03:21:07.974Z,0.63
2023-03-26T03:23:34.725Z,1.05
2023-03-26T03:26:02.577Z,0.77
2023-03-26T03:28:29.202Z,0.70
2023-03-26T03:30:57.754Z,0.93
2023-03-26T03:33:24.633Z,1.35
2023-03-26T03:35:51.643Z,0.88
2023-03-26T03:38:19.324Z,0.52
2023-03-26T03:40:46.117Z,0.80
2023-03-26T03:43:12.904Z,1.25
2023-03-26T03:45:39.593Z,0.60
2023-03-26T03:48:06.569Z,1.10
2023-03-26T03:50:36.093Z,1.70
2023-03-26T03:53:03.385Z,1.08
2023-03-26T03:55:30.045Z,0.95
2023-03-26T03:57:58.312Z,1.10
2023-03-26T04:00:25.343Z,1.33
2023-03-26T04:02:54.681Z,0.70
2023-03-26T04:05:21.564Z,1.10
2023-03-26T04:07:49.365Z,0.80
2023-03-26T04:10:16.463Z,0.90
2023-03-26T04:12:43.297Z,1.13
2023-03-26T04:15:10.424Z,1.38
2023-03-26T04:17:42.581Z,0.60
2023-03-26T04:20:16.009Z,0.85
2023-03-26T04:22:43.802Z,0.98
2023-03-26T04:25:12.406Z,1.00
2023-03-26T04:27:41.600Z,1.08
2023-03-26T04:30:14.676Z,0.75
2023-03-26T04:32:43.172Z,0.50
2023-03-26T04:35:15.163Z,0.77
2023-03-26T04:37:44.488Z,1.05
2023-03-26T04:40:22.999Z,0.63
2023-03-26T04:42:49.711Z,1.00
2023-03-26T04:45:22.591Z,0.82
2023-03-26T04:47:50.906Z,0.50
2023-03-26T04:50:17.737Z,0.88
2023-03-26T04:52:45.419Z,0.80
2023-03-26T04:55:51.342Z,0.35
2023-03-26T04:58:18.541Z,1.00
2023-03-26T05:00:47.866Z,0.60
2023-03-26T05:03:14.643Z,0.40
2023-03-26T05:05:41.603Z,0.63
2023-03-26T05:08:08.457Z,0.90
2023-03-26T05:10:35.371Z,0.52
2023-03-26T05:13:02.276Z,1.17
2023-03-26T05:15:31.084Z,0.60
2023-03-26T05:17:58.021Z,0.80
2023-03-26T05:20:29.601Z,0.63
2023-03-26T05:22:57.072Z,0.63
2023-03-26T05:25:23.823Z,0.68
2023-03-26T05:27:53.119Z,0.90
2023-03-26T05:30:22.568Z,0.60
2023-03-26T05:32:49.856Z,0.43
2023-03-26T05:35:17.845Z,0.57
2023-03-26T05:37:46.394Z,0.75
2023-03-26T05:40:16.685Z,0.82
2023-03-26T05:42:43.921Z,0.50
2023-03-26T05:45:13.528Z,0.60
2023-03-26T05:47:40.223Z,1.40
2023-03-26T05:50:11.267Z,0.73
2023-03-26T05:52:39.404Z,1.00
2023-03-26T05:55:08.166Z,1.33
2023-03-26T05:57:36.152Z,1.38
2023-03-26T06:00:10.524Z,0.90
2023-03-26T06:02:37.416Z,0.90
2023-03-26T06:05:05.170Z,0.63
2023-03-26T06:07:33.789Z,1.13
2023-03-26T06:10:00.855Z,1.38
2023-03-26T06:12:27.536Z,1.42
2023-03-26T06:14:56.034Z,0.90
2023-03-26T06:17:22.629Z,0.70
2023-03-26T06:19:49.814Z,1.40
2023-03-26T06:22:16.686Z,0.90
2023-03-26T06:24:43.454Z,1.20
2023-03-26T06:27:12.401Z,0.55
2023-03-26T06:29:39.090Z,0.50
2023-03-26T06:32:16.624Z,0.55
2023-03-26T06:34:46.111Z,1.00
2023-03-26T06:37:14.201Z,0.57
2023-03-26T06:39:41.212Z,1.23
2023-03-26T06:42:07.918Z,0.88
2023-03-26T06:44:34.726Z,1.15
2023-03-26T06:47:01.345Z,1.00
2023-03-26T06:49:28.021Z,0.70
2023-03-26T06:51:56.067Z,0.85
2023-03-26T06:54:23.065Z,0.57
2023-03-26T06:56:49.769Z,0.63
2023-03-26T06:59:16.434Z,0.68
2023-03-26T07:04:34.615Z,1.27
2023-03-26T07:07:02.220Z,1.08
2023-03-26T07:09:30.377Z,1.20
2023-03-26T07:11:57.601Z,0.77
2023-03-26T07:14:24.974Z,0.73
2023-03-26T07:16:52.046Z,0.57
2023-03-26T07:19:20.845Z,1.33
2023-03-26T07:21:47.999Z,1.10
2023-03-26T07:24:16.702Z,0.70
2023-03-26T07:27:01.470Z,1.30
2023-03-26T07:29:56.938Z,1.10
2023-03-26T07:32:34.885Z,1.00
2023-03-26T07:35:11.478Z,1.85
2023-03-26T07:37:49.793Z,0.98
2023-03-26T07:41:01.292Z,0.90
2023-03-26T07:43:58.930Z,1.25
2023-03-26T07:46:31.967Z,1.13
2023-03-26T07:49:01.704Z,1.08
2023-03-26T07:51:29.381Z,1.27
2023-03-26T07:53:56.826Z,0.98
2023-03-26T07:56:32.829Z,1.35
2023-03-26T07:59:14.633Z,1.40
2023-03-26T08:02:08.730Z,1.13
2023-03-26T08:05:03.536Z,1.10
2023-03-26T08:07:53.407Z,1.27
2023-03-26T08:10:27.164Z,0.80
2023-03-26T08:13:34.607Z,1.13
2023-03-26T08:16:24.637Z,0.95
2023-03-26T08:19:16.574Z,1.83
2023-03-26T08:21:51.054Z,1.48
2023-03-26T08:24:36.597Z,1.10
2023-03-26T08:27:22.995Z,1.08
2023-03-26T08:30:03.008Z,1.08
2023-03-26T08:32:30.362Z,1.48
2023-03-26T08:34:57.737Z,1.05
2023-03-26T08:37:24.403Z,1.40
2023-03-26T08:39:51.137Z,1.15
2023-03-26T08:42:46.106Z,1.52
2023-03-26T08:45:45.755Z,1.25
2023-03-26T08:48:34.425Z,1.27
2023-03-26T08:51:28.917Z,1.00
2023-03-26T08:54:26.457Z,0.85
2023-03-26T08:57:08.296Z,1.08
2023-03-26T08:59:56.625Z,1.40
2023-03-26T09:02:39.952Z,1.55
2023-03-26T09:05:21.849Z,1.25
2023-03-26T09:08:25.140Z,0.98
2023-03-26T09:11:08.407Z,1.38
2023-03-26T09:14:33.085Z,1.50
2023-03-26T09:17:41.983Z,1.98
2023-03-26T09:20:30.239Z,1.85
2023-03-26T09:23:20.086Z,0.95
2023-03-26T09:26:14.512Z,1.02
2023-03-26T09:29:08.539Z,1.00
2023-03-26T09:31:42.958Z,1.45
2023-03-26T09:34:32.999Z,1.23
2023-03-26T09:37:35.577Z,1.08
2023-03-26T09:40:32.993Z,1.15
2023-03-26T09:43:08.754Z,0.80
2023-03-26T09:45:44.889Z,0.82
2023-03-26T09:48:33.492Z,1.33
2023-03-26T09:51:32.201Z,1.17
2023-03-26T09:54:18.222Z,1.27
2023-03-26T09:57:08.898Z,1.13
2023-03-26T09:59:56.504Z,1.05
2023-03-26T10:02:45.850Z,1.02
2023-03-26T10:05:42.817Z,1.27
2023-03-26T10:08:39.651Z,1.55
2023-03-26T10:11:36.722Z,0.65
2023-03-26T10:14:22.717Z,0.98
2023-03-26T10:17:09.785Z,1.23
2023-03-26T10:20:01.521Z,1.42
2023-03-26T10:22:46.173Z,1.45
2023-03-26T10:25:54.238Z,1.50
2023-03-26T10:28:45.466Z,1.02
2023-03-26T10:31:36.940Z,0.77
2023-03-26T10:34:59.132Z,0.90
2023-03-26T10:38:06.328Z,1.13
2023-03-26T10:40:42.719Z,1.20
2023-03-26T10:43:40.699Z,0.80
2023-03-26T10:46:30.667Z,1.42
2023-03-26T10:49:26.321Z,1.05
2023-03-26T10:51:58.394Z,1.20
2023-03-26T10:54:45.293Z,1.13
2023-03-26T10:57:36.993Z,1.27
2023-03-26T11:00:25.760Z,1.90
2023-03-26T11:03:29.034Z,1.60
2023-03-26T11:06:31.570Z,2.17
2023-03-26T11:09:15.592Z,1.00
2023-03-26T11:12:27.486Z,1.23
2023-03-26T11:15:00.929Z,0.95
2023-03-26T11:17:49.999Z,1.05
2023-03-26T11:21:19.403Z,1.00
2023-03-26T11:24:04.676Z,1.40
2023-03-26T11:27:14.662Z,1.95
2023-03-26T11:29:54.535Z,0.90
2023-03-26T11:32:25.719Z,1.50
2023-03-26T11:35:09.198Z,1.48
2023-03-26T11:37:46.376Z,1.23
2023-03-26T11:40:20.137Z,1.77
2023-03-26T11:42:48.789Z,1.30
2023-03-26T11:45:19.934Z,1.20
2023-03-26T11:47:54.047Z,1.20
2023-03-26T11:50:33.006Z,1.00
2023-03-26T11:53:11.458Z,1.33
2023-03-26T11:56:01.349Z,1.35
2023-03-26T11:58:37.156Z,1.02
2023-03-26T12:01:13.244Z,1.50
2023-03-26T12:03:41.647Z,1.52
2023-03-26T12:06:25.982Z,0.90
2023-03-26T12:08:57.159Z,1.60
2023-03-26T12:11:28.281Z,1.45
2023-03-26T12:14:04.305Z,1.20
2023-03-26T12:16:31.366Z,1.23
2023-03-26T12:19:07.322Z,1.15
2023-03-26T12:21:46.103Z,1.23
2023-03-26T12:24:29.529Z,1.60
2023-03-26T12:27:02.393Z,0.98
2023-03-26T12:29:34.478Z,1.35
2023-03-26T12:32:14.098Z,0.95
2023-03-26T12:34:43.838Z,1.08
2023-03-26T12:37:38.708Z,1.50
2023-03-26T12:40:30.236Z,1.40
2023-03-26T12:44:48.306Z,0.95
2023-03-26T12:46:03.703Z,0.77
2023-03-26T12:48:41.546Z,1.10
2023-03-26T12:51:28.499Z,1.48
2023-03-26T12:54:01.438Z,1.10
2023-03-26T12:56:47.750Z,0.90
2023-03-26T12:59:23.427Z,0.95
2023-03-26T13:02:33.639Z,1.05
2023-03-26T13:05:32.259Z,1.40
2023-03-26T13:08:27.142Z,1.08
2023-03-26T13:11:14.266Z,1.10
2023-03-26T13:14:00.729Z,1.52
2023-03-26T13:16:36.810Z,0.98
2023-03-26T13:19:14.628Z,0.90
2023-03-26T13:21:54.300Z,1.55
2023-03-26T13:24:40.262Z,1.40
2023-03-26T13:27:33.917Z,1.98
2023-03-26T13:30:06.312Z,0.98
2023-03-26T13:32:59.839Z,0.75
2023-03-26T13:36:05.952Z,1.08
2023-03-26T13:38:43.372Z,0.82
2023-03-26T13:41:26.285Z,2.10
2023-03-26T13:44:11.438Z,0.60
2023-03-26T13:46:42.751Z,1.52
2023-03-26T13:49:15.707Z,1.33
2023-03-26T13:51:48.108Z,0.80
2023-03-26T13:54:25.362Z,1.20
2023-03-26T13:57:19.397Z,1.08
2023-03-26T14:00:17.976Z,1.33
2023-03-26T14:02:50.477Z,1.48
2023-03-26T14:05:29.395Z,0.80
2023-03-26T14:08:04.316Z,1.15
2023-03-26T14:10:41.182Z,0.90
2023-03-26T14:13:17.837Z,1.45
2023-03-26T14:16:01.615Z,1.23
2023-03-26T14:18:37.383Z,0.90
2023-03-26T14:21:36.234Z,0.73
2023-03-26T14:24:26.460Z,1.00
2023-03-26T14:26:58.737Z,0.93
2023-03-26T14:29:56.339Z,1.23
2023-03-26T14:32:37.228Z,1.13
2023-03-26T14:35:13.833Z,0.70
2023-03-26T14:38:14.878Z,1.38
2023-03-26T14:40:57.150Z,0.73
2023-03-26T14:43:55.458Z,1.50
2023-03-26T14:46:34.498Z,1.52
2023-03-26T14:49:19.973Z,0.80
2023-03-26T14:52:23.162Z,0.98
2023-03-26T14:54:55.211Z,0.98
2023-03-26T14:57:58.750Z,1.05
2023-03-26T15:01:04.746Z,0.45
2023-03-26T15:03:56.142Z,1.00
2023-03-26T15:06:41.994Z,1.27
2023-03-26T15:09:40.382Z,0.70
2023-03-26T15:12:35.948Z,0.75
2023-03-26T15:15:27.886Z,0.85
2023-03-26T15:18:21.651Z,0.68
2023-03-26T15:21:22.762Z,1.13
2023-03-26T15:24:11.172Z,0.73
2023-03-26T15:27:01.084Z,0.68
2023-03-26T15:29:49.642Z,0.65
2023-03-26T15:32:44.766Z,0.60
2023-03-26T15:35:31.810Z,0.40
2023-03-26T15:38:09.213Z,0.80
2023-03-26T15:40:56.420Z,1.00
2023-03-26T15:43:26.576Z,0.73
2023-03-26T15:47:00.126Z,0.63
2023-03-26T15:49:44.130Z,2.10
2023-03-26T15:52:45.484Z,0.90
2023-03-26T15:55:28.290Z,0.73
2023-03-26T15:58:02.455Z,0.45
2023-03-26T16:00:34.559Z,0.90
2023-03-26T16:03:10.219Z,0.88
2023-03-26T16:05:51.574Z,1.70
2023-03-26T16:08:46.991Z,1.05
2023-03-26T16:11:14.411Z,2.58
2023-03-26T16:13:56.345Z,1.30
2023-03-26T16:16:27.014Z,1.20
2023-03-26T16:19:19.516Z,0.73
2023-03-26T16:22:00.271Z,0.60
2023-03-26T16:24:30.468Z,0.38
2023-03-26T16:27:07.771Z,1.77
2023-03-26T16:29:53.687Z,1.30
2023-03-26T16:32:49.370Z,0.90
2023-03-26T16:35:16.755Z,0.60
2023-03-26T16:37:51.934Z,0.65
2023-03-26T16:40:20.213Z,0.52
2023-03-26T16:43:17.986Z,1.20
2023-03-26T16:46:09.144Z,1.13
2023-03-26T16:48:49.913Z,0.70
2023-03-26T16:51:37.377Z,0.52
2023-03-26T16:54:22.160Z,0.60
2023-03-26T16:56:52.792Z,0.52
2023-03-26T17:00:04.645Z,0.80
2023-03-26T17:02:54.895Z,0.38
2023-03-26T17:05:24.800Z,0.80
2023-03-26T17:08:10.171Z,0.40
2023-03-26T17:11:24.960Z,0.80
2023-03-26T17:14:22.421Z,0.60
2023-03-26T17:17:19.882Z,1.00
2023-03-26T17:19:52.621Z,0.60
2023-03-26T17:22:45.104Z,0.47
2023-03-26T17:25:31.034Z,0.73
2023-03-26T17:28:07.589Z,0.60
2023-03-26T17:31:31.473Z,0.55
2023-03-26T17:34:37.169Z,0.88
2023-03-26T17:37:12.895Z,1.00
2023-03-26T17:39:39.835Z,1.08
2023-03-26T17:42:36.190Z,0.50
2023-03-26T17:45:17.785Z,0.75
2023-03-26T17:47:52.693Z,0.98
2023-03-26T17:50:25.992Z,1.02
2023-03-26T17:52:58.195Z,0.90
2023-03-26T17:55:32.692Z,0.73
2023-03-26T17:58:02.065Z,1.00
2023-03-26T18:00:39.871Z,0.70
2023-03-26T18:03:12.751Z,0.47
2023-03-26T18:05:40.451Z,0.63
2023-03-26T18:08:34.134Z,0.73
2023-03-26T18:11:27.146Z,1.20
2023-03-26T18:14:27.489Z,0.70
2023-03-26T18:17:00.546Z,1.42
2023-03-26T18:19:30.347Z,0.55
2023-03-26T18:21:59.204Z,0.88
2023-03-26T18:24:33.505Z,0.57
2023-03-26T18:27:12.330Z,0.52
2023-03-26T18:29:46.471Z,0.70
2023-03-26T18:32:15.407Z,0.40
2023-03-26T18:34:52.719Z,0.90
2023-03-26T18:37:33.622Z,0.57
2023-03-26T18:40:15.429Z,0.45
2023-03-26T18:42:46.720Z,0.40
2023-03-26T18:45:26.275Z,0.20
2023-03-26T18:47:57.413Z,0.25
2023-03-26T18:50:34.671Z,0.20
2023-03-26T18:53:01.533Z,0.40
2023-03-26T18:55:34.354Z,0.50
2023-03-26T18:58:22.727Z,0.40
2023-03-26T19:00:53.072Z,0.22
2023-03-26T19:03:24.099Z,1.05
2023-03-26T19:05:56.328Z,0.20
2023-03-26T19:08:25.167Z,0.10
2023-03-26T19:10:54.752Z,0.30
2023-03-26T19:13:22.527Z,0.20
2023-03-26T19:15:55.705Z,0.40
2023-03-26T19:18:26.275Z,0.60
2023-03-26T19:20:57.478Z,0.20
2023-03-26T19:23:33.789Z,0.15
2023-03-26T19:26:04.118Z,0.30
2023-03-26T19:28:49.176Z,0.30
2023-03-26T19:31:16.040Z,0.20
2023-03-26T19:33:44.341Z,0.20
2023-03-26T19:36:16.621Z,0.35
2023-03-26T19:39:10.405Z,0.43
2023-03-26T19:41:41.172Z,0.25
2023-03-26T19:44:27.898Z,0.17
2023-03-26T19:47:03.719Z,0.15
2023-03-26T19:49:41.069Z,0.20
2023-03-26T19:52:19.378Z,0.50
2023-03-26T19:55:04.192Z,0.55
2023-03-26T19:57:32.197Z,0.40
2023-03-26T19:59:59.821Z,0.20
2023-03-26T20:02:27.697Z,0.10
2023-03-26T20:04:55.507Z,0.30
2023-03-26T20:07:35.609Z,0.25
2023-03-26T20:10:06.648Z,0.30
2023-03-26T20:12:33.455Z,0.25
2023-03-26T20:15:01.884Z,0.13
2023-03-26T20:17:30.726Z,0.40
2023-03-26T20:19:57.663Z,0.55
2023-03-26T20:22:24.561Z,0.25
2023-03-26T20:24:51.532Z,0.57
2023-03-26T20:27:19.224Z,0.20
2023-03-26T20:29:46.731Z,0.45
2023-03-26T20:32:27.154Z,0.50
2023-03-26T20:34:55.074Z,0.20
2023-03-26T20:37:24.159Z,0.10
2023-03-26T20:39:50.826Z,0.40
2023-03-26T20:42:17.550Z,0.15
2023-03-26T20:44:45.843Z,0.43
2023-03-26T20:47:14.715Z,0.50
2023-03-26T20:49:43.593Z,0.55
2023-03-26T20:52:13.719Z,0.30
2023-03-26T20:54:40.554Z,0.50
2023-03-26T20:57:07.490Z,0.15
2023-03-26T20:59:34.903Z,0.50
2023-03-26T21:02:03.339Z,0.22
2023-03-26T21:04:30.102Z,0.80
2023-03-26T21:07:07.020Z,0.45
2023-03-26T21:09:38.597Z,0.60
2023-03-26T21:12:15.264Z,0.50
2023-03-26T21:14:44.741Z,0.93
2023-03-26T21:17:19.296Z,0.30
2023-03-26T21:19:47.168Z,0.45
2023-03-26T21:22:44.531Z,0.30
2023-03-26T21:26:00.953Z,0.30
2023-03-26T21:28:47.267Z,0.82
2023-03-26T21:31:18.623Z,0.50
2023-03-26T21:33:46.494Z,0.50
2023-03-26T21:36:14.217Z,0.60
2023-03-26T21:38:45.488Z,1.00
2023-03-26T21:41:44.936Z,0.55
2023-03-26T21:44:11.791Z,0.38
2023-03-26T21:46:42.038Z,0.50
2023-03-26T21:49:09.010Z,0.40
2023-03-26T21:51:36.467Z,0.47
2023-03-26T21:54:03.913Z,0.30
2023-03-26T21:56:50.416Z,0.30
2023-03-26T21:59:38.922Z,0.45
2023-03-26T22:02:14.714Z,0.13
2023-03-26T22:05:19.974Z,0.30
2023-03-26T22:07:54.812Z,0.40
2023-03-26T22:10:21.866Z,0.35
2023-03-26T22:12:48.936Z,0.30
2023-03-26T22:15:15.898Z,0.50
2023-03-26T22:17:42.828Z,0.30
2023-03-26T22:20:14.556Z,0.30
2023-03-26T22:22:49.202Z,0.20
2023-03-26T22:25:20.627Z,0.35
2023-03-26T22:27:48.977Z,0.88
2023-03-26T22:30:16.535Z,0.70
2023-03-26T22:32:43.642Z,0.60
2023-03-26T22:35:12.898Z,0.68
2023-03-26T22:37:40.725Z,0.20
2023-03-26T22:40:08.761Z,0.47
2023-03-26T22:42:36.448Z,0.30
2023-03-26T22:45:04.200Z,0.20
2023-03-26T22:47:33.836Z,0.32
2023-03-26T22:50:01.989Z,0.55
2023-03-26T22:52:29.810Z,0.40
2023-03-26T22:54:57.063Z,0.30
2023-03-26T22:57:24.362Z,0.40
2023-03-26T22:59:51.967Z,0.55
2023-03-26T23:02:19.322Z,0.38
2023-03-26T23:04:47.780Z,0.93
2023-03-26T23:07:14.700Z,0.45
2023-03-26T23:09:41.787Z,0.47
2023-03-26T23:12:08.542Z,0.35
2023-03-26T23:14:36.372Z,0.52
2023-03-26T23:17:03.782Z,0.35
2023-03-26T23:19:30.547Z,0.40
2023-03-26T23:21:57.347Z,0.20
2023-03-26T23:24:26.582Z,0.40
2023-03-26T23:26:53.337Z,0.28
2023-03-26T23:29:19.996Z,0.30
2023-03-26T23:31:47.113Z,0.47
2023-03-26T23:34:14.181Z,0.38
2023-03-26T23:36:41.817Z,0.50
2023-03-26T23:39:09.187Z,0.17
2023-03-26T23:41:36.926Z,0.32
2023-03-26T23:44:04.329Z,0.40
2023-03-26T23:46:33.751Z,0.30
2023-03-26T23:49:03.678Z,0.95
2023-03-26T23:51:31.211Z,0.60
2023-03-26T23:53:58.395Z,0.50
2023-03-26T23:56:29.884Z,0.68
2023-03-26T23:58:56.671Z,0.30
